Time;durP1;ratioP1;P1;durP2;ratioP2;P2;SDS_P1;SDS_P2;PMS_P1;PMS_P2;Temp;Humidity;BMP_temperature;BMP_pressure;BME280_temperature;BME280_humidity;BME280_pressure;Samples;Min_cycle;Max_cycle;Signal;HPM_P1;HPM_P2
2023/05/25 00:02:07;;;;;;;4.38;2.50;;;10.80;99.90;;;;;;6240881;23;20020;-68
2023/05/25 00:04:33;;;;;;;7.35;2.72;;;10.80;99.90;;;;;;6240684;23;20018;-68
2023/05/25 00:07:00;;;;;;;5.32;2.83;;;10.70;99.90;;;;;;6242395;22;20023;-67
2023/05/25 00:09:26;;;;;;;9.30;3.10;;;10.70;99.90;;;;;;6242477;22;20004;-68
2023/05/25 00:11:51;;;;;;;9.88;2.70;;;10.70;99.90;;;;;;6240670;23;20019;-68
2023/05/25 00:14:18;;;;;;;6.18;2.78;;;10.70;99.90;;;;;;6242726;22;20008;-68
2023/05/25 00:16:47;;;;;;;6.03;3.03;;;10.60;99.90;;;;;;6240846;23;20321;-68
2023/05/25 00:19:13;;;;;;;5.70;3.05;;;10.70;99.90;;;;;;6242302;22;20052;-68
2023/05/25 00:21:40;;;;;;;8.98;3.40;;;10.60;99.90;;;;;;6215095;23;20020;-67
2023/05/25 00:24:07;;;;;;;7.47;2.95;;;10.60;99.90;;;;;;6214968;23;20118;-67
2023/05/25 00:26:33;;;;;;;8.95;3.47;;;10.60;99.90;;;;;;6240597;23;20012;-68
2023/05/25 00:28:59;;;;;;;5.55;3.10;;;10.50;99.90;;;;;;6242346;22;20075;-68
2023/05/25 00:31:26;;;;;;;8.55;3.33;;;10.50;99.90;;;;;;6241706;22;20024;-68
2023/05/25 00:33:52;;;;;;;10.57;3.40;;;10.50;99.90;;;;;;6241885;22;20436;-68
2023/05/25 00:36:18;;;;;;;3.58;2.55;;;10.50;99.90;;;;;;6242152;22;20078;-67
2023/05/25 00:38:44;;;;;;;11.18;3.72;;;10.50;99.90;;;;;;6240282;23;20012;-66
2023/05/25 00:41:10;;;;;;;9.73;3.20;;;10.50;99.90;;;;;;6241907;22;20023;-67
2023/05/25 00:43:35;;;;;;;6.53;3.63;;;10.50;99.90;;;;;;6240491;23;20031;-67
2023/05/25 00:46:02;;;;;;;10.50;5.25;;;10.50;99.90;;;;;;6241967;22;20012;-67
2023/05/25 00:48:28;;;;;;;9.43;2.95;;;10.40;99.90;;;;;;6240201;23;20020;-68
2023/05/25 00:50:58;;;;;;;5.85;3.15;;;10.30;99.90;;;;;;6241780;22;20547;-67
2023/05/25 00:53:25;;;;;;;6.22;3.38;;;10.40;99.90;;;;;;6242218;22;20055;-68
2023/05/25 00:56:14;;;;;;;8.00;3.25;;;10.50;99.90;;;;;;6242237;22;20422;-67
2023/05/25 00:58:42;;;;;;;6.57;3.40;;;10.50;99.90;;;;;;6242038;22;20091;-68
2023/05/25 01:01:11;;;;;;;10.13;3.50;;;10.40;99.90;;;;;;6242192;22;20004;-67
2023/05/25 01:03:40;;;;;;;8.50;3.60;;;10.50;99.90;;;;;;6242209;22;20016;-67
2023/05/25 01:06:10;;;;;;;12.20;3.85;;;10.50;99.90;;;;;;6241915;22;20016;-67
2023/05/25 01:08:39;;;;;;;8.10;4.00;;;10.50;99.90;;;;;;6241664;22;20403;-68
2023/05/25 01:11:07;;;;;;;9.45;3.78;;;10.40;99.90;;;;;;6242144;22;20024;-67
2023/05/25 01:13:33;;;;;;;9.65;5.45;;;10.40;99.90;;;;;;6239920;23;20435;-67
2023/05/25 01:15:59;;;;;;;6.35;3.13;;;10.40;99.90;;;;;;6241996;22;20448;-67
2023/05/25 01:18:25;;;;;;;6.20;3.42;;;10.40;99.90;;;;;;6241729;22;20028;-68
2023/05/25 01:21:11;;;;;;;7.97;3.47;;;10.30;99.90;;;;;;6242434;22;20016;-67
2023/05/25 01:23:46;;;;;;;10.85;3.60;;;10.30;99.90;;;;;;6241917;22;20095;-68
2023/05/25 01:26:16;;;;;;;11.05;4.65;;;10.30;99.90;;;;;;6239859;23;20043;-67
2023/05/25 01:28:49;;;;;;;6.70;3.25;;;10.30;99.90;;;;;;6241959;22;20062;-67
2023/05/25 01:31:16;;;;;;;7.65;3.60;;;10.20;99.90;;;;;;6241828;22;20074;-67
2023/05/25 01:33:43;;;;;;;10.75;3.40;;;10.20;99.90;;;;;;6239768;23;20460;-67
2023/05/25 01:36:09;;;;;;;7.05;3.72;;;10.20;99.90;;;;;;6239529;23;20530;-68
2023/05/25 01:38:36;;;;;;;7.32;3.83;;;10.10;99.90;;;;;;6239610;23;20103;-67
2023/05/25 01:41:02;;;;;;;8.07;4.00;;;10.10;99.90;;;;;;6241507;22;20020;-67
2023/05/25 01:43:27;;;;;;;8.68;3.72;;;10.10;99.90;;;;;;6239807;23;20027;-67
2023/05/25 01:46:04;;;;;;;8.77;3.63;;;10.00;99.90;;;;;;6239581;23;20023;-67
2023/05/25 01:48:53;;;;;;;8.82;3.65;;;10.00;99.90;;;;;;6241424;22;20016;-68
2023/05/25 01:51:37;;;;;;;9.05;3.80;;;10.00;99.90;;;;;;6241328;22;20026;-67
2023/05/25 01:54:10;;;;;;;6.65;3.40;;;10.10;99.90;;;;;;6241211;22;20344;-67
2023/05/25 01:56:37;;;;;;;8.40;3.83;;;10.00;99.90;;;;;;6241743;22;20083;-67
2023/05/25 01:59:05;;;;;;;9.98;5.50;;;10.10;99.90;;;;;;6241647;22;20012;-67
2023/05/25 02:01:32;;;;;;;7.28;4.15;;;10.00;99.90;;;;;;6241485;22;20023;-67
2023/05/25 02:03:59;;;;;;;11.35;5.20;;;10.00;99.90;;;;;;6241373;22;20046;-67
2023/05/25 02:06:25;;;;;;;8.73;3.97;;;10.00;99.90;;;;;;6241423;22;20016;-67
2023/05/25 02:08:50;;;;;;;10.65;3.80;;;10.00;99.90;;;;;;6241305;22;20012;-67
2023/05/25 02:11:16;;;;;;;11.40;4.30;;;10.00;99.90;;;;;;6241040;22;20020;-67
2023/05/25 02:13:42;;;;;;;7.50;4.10;;;9.90;99.90;;;;;;6241474;22;20024;-67
2023/05/25 02:16:07;;;;;;;14.70;4.32;;;10.00;99.90;;;;;;6241409;22;20016;-67
2023/05/25 02:18:33;;;;;;;7.32;4.25;;;10.00;99.90;;;;;;6238952;23;20055;-67
2023/05/25 02:20:59;;;;;;;8.43;4.85;;;9.90;99.90;;;;;;6239300;23;20091;-67
2023/05/25 02:23:25;;;;;;;10.10;4.63;;;9.90;99.90;;;;;;6241247;22;20024;-67
2023/05/25 02:25:51;;;;;;;7.30;4.13;;;9.80;99.90;;;;;;6240877;22;20062;-67
2023/05/25 02:28:16;;;;;;;7.53;4.20;;;9.80;99.90;;;;;;6239776;23;20012;-67
2023/05/25 02:30:42;;;;;;;8.68;4.13;;;9.80;99.90;;;;;;6239713;23;20016;-67
2023/05/25 02:33:08;;;;;;;9.18;4.35;;;9.80;99.90;;;;;;6240692;22;20051;-67
2023/05/25 02:35:34;;;;;;;9.35;3.65;;;9.80;99.90;;;;;;6239246;23;20024;-67
2023/05/25 02:37:59;;;;;;;7.93;3.95;;;9.80;99.90;;;;;;6239242;23;20016;-67
2023/05/25 02:40:25;;;;;;;10.40;3.95;;;9.80;99.90;;;;;;6240945;22;20015;-67
2023/05/25 02:42:51;;;;;;;7.68;4.03;;;9.70;99.90;;;;;;6241354;22;20012;-67
2023/05/25 02:45:17;;;;;;;11.02;4.30;;;9.80;99.90;;;;;;6240929;22;20099;-67
2023/05/25 02:47:42;;;;;;;12.63;4.57;;;9.80;99.90;;;;;;6239131;23;20070;-67
2023/05/25 02:50:08;;;;;;;8.60;4.13;;;9.60;99.90;;;;;;6241120;23;20515;-67
2023/05/25 02:52:34;;;;;;;5.50;4.15;;;9.60;99.90;;;;;;6240938;22;20096;-67
2023/05/25 02:55:00;;;;;;;9.98;4.10;;;9.60;99.90;;;;;;6240979;22;20702;-67
2023/05/25 02:57:28;;;;;;;9.35;4.50;;;9.60;99.90;;;;;;6239163;23;20012;-67
2023/05/25 02:59:53;;;;;;;8.10;3.85;;;9.60;99.90;;;;;;6240684;22;20024;-66
2023/05/25 03:02:19;;;;;;;12.13;4.10;;;9.50;99.90;;;;;;6240847;22;20020;-67
2023/05/25 03:04:45;;;;;;;8.98;4.78;;;9.60;99.90;;;;;;6241007;22;20477;-67
2023/05/25 03:07:11;;;;;;;10.07;4.35;;;9.50;99.90;;;;;;6240990;22;20008;-67
2023/05/25 03:09:38;;;;;;;8.32;4.43;;;9.50;99.90;;;;;;6239096;23;20502;-67
2023/05/25 03:12:04;;;;;;;8.57;4.40;;;9.50;99.90;;;;;;6240883;22;20713;-67
2023/05/25 03:14:29;;;;;;;10.15;5.05;;;9.50;99.90;;;;;;6240949;22;20044;-67
2023/05/25 03:16:55;;;;;;;10.00;5.00;;;9.60;99.90;;;;;;6240521;22;20460;-67
2023/05/25 03:19:21;;;;;;;9.93;5.43;;;9.60;99.90;;;;;;6240639;22;20020;-67
2023/05/25 03:21:47;;;;;;;10.43;4.28;;;9.60;99.90;;;;;;6241136;22;20324;-67
2023/05/25 03:24:13;;;;;;;9.85;4.78;;;9.60;99.90;;;;;;6240810;22;20308;-67
2023/05/25 03:26:38;;;;;;;9.40;5.32;;;9.60;99.90;;;;;;6241213;22;20016;-67
2023/05/25 03:29:07;;;;;;;12.15;5.18;;;9.60;99.90;;;;;;6240942;22;20028;-67
2023/05/25 03:31:32;;;;;;;8.82;4.43;;;9.60;99.90;;;;;;6240951;22;20008;-67
2023/05/25 03:33:58;;;;;;;12.10;5.00;;;9.50;99.90;;;;;;6243105;22;20043;-67
2023/05/25 03:36:27;;;;;;;12.40;4.70;;;9.50;99.90;;;;;;6242890;22;20664;-67
2023/05/25 03:38:53;;;;;;;12.55;4.72;;;9.50;99.90;;;;;;6243088;22;20035;-67
2023/05/25 03:41:19;;;;;;;9.85;4.50;;;9.50;99.90;;;;;;6241390;23;20319;-67
2023/05/25 03:43:45;;;;;;;10.57;5.18;;;9.50;99.90;;;;;;6242895;22;20031;-67
2023/05/25 03:46:11;;;;;;;8.38;4.88;;;9.60;99.90;;;;;;6243033;22;20016;-66
2023/05/25 03:48:36;;;;;;;11.63;4.60;;;9.50;99.90;;;;;;6242792;22;20348;-67
2023/05/25 03:51:02;;;;;;;10.88;4.53;;;9.50;99.90;;;;;;6243176;22;20056;-67
2023/05/25 03:53:28;;;;;;;13.60;5.72;;;9.50;99.90;;;;;;6240962;23;20405;-67
2023/05/25 03:55:54;;;;;;;9.75;4.65;;;9.50;99.90;;;;;;6242583;22;20039;-67
2023/05/25 03:58:20;;;;;;;9.63;5.60;;;9.50;99.90;;;;;;6242938;22;20044;-67
2023/05/25 04:00:48;;;;;;;10.07;4.60;;;9.60;99.90;;;;;;6242582;22;20306;-67
2023/05/25 04:03:14;;;;;;;10.13;4.50;;;9.60;99.90;;;;;;6242365;22;20718;-67
2023/05/25 04:05:40;;;;;;;12.45;5.93;;;9.60;99.90;;;;;;6242811;22;20050;-66
2023/05/25 04:08:07;;;;;;;9.40;5.13;;;9.60;99.90;;;;;;6242749;22;20012;-67
2023/05/25 04:10:33;;;;;;;9.02;5.20;;;9.70;99.90;;;;;;6240727;23;20475;-66
2023/05/25 04:12:58;;;;;;;8.88;4.55;;;9.80;99.90;;;;;;6242478;22;20016;-67
2023/05/25 04:15:24;;;;;;;7.97;5.13;;;9.90;99.90;;;;;;6240462;23;20031;-68
2023/05/25 04:17:50;;;;;;;11.95;5.32;;;10.00;99.90;;;;;;6242418;22;20018;-67
2023/05/25 04:20:16;;;;;;;12.90;4.72;;;10.00;99.90;;;;;;6242877;23;20087;-67
2023/05/25 04:22:43;;;;;;;15.05;5.80;;;10.10;99.90;;;;;;6242548;22;20013;-67
2023/05/25 04:25:09;;;;;;;11.68;4.90;;;10.10;99.90;;;;;;6242360;22;20047;-67
2023/05/25 04:27:35;;;;;;;12.35;4.90;;;10.20;99.90;;;;;;6242004;22;20020;-67
2023/05/25 04:30:02;;;;;;;13.57;5.40;;;10.20;99.90;;;;;;6240455;23;20371;-67
2023/05/25 04:32:31;;;;;;;13.65;6.10;;;10.30;99.90;;;;;;6240555;23;20012;-67
2023/05/25 04:34:57;;;;;;;6.93;4.57;;;10.30;99.90;;;;;;6242296;22;20012;-67
2023/05/25 04:37:26;;;;;;;10.43;4.68;;;10.40;99.90;;;;;;6242427;22;20027;-67
2023/05/25 04:39:52;;;;;;;13.48;6.03;;;10.50;99.90;;;;;;6242130;22;20016;-67
2023/05/25 04:42:22;;;;;;;12.07;5.45;;;10.50;99.90;;;;;;6242301;22;20055;-67
2023/05/25 04:44:58;;;;;;;9.55;5.55;;;10.60;99.90;;;;;;6241975;22;20063;-67
2023/05/25 04:47:24;;;;;;;10.07;4.70;;;10.70;99.90;;;;;;6242483;22;20585;-67
2023/05/25 04:49:50;;;;;;;11.02;6.68;;;10.90;99.90;;;;;;6242248;22;20016;-67
2023/05/25 04:52:16;;;;;;;10.18;5.70;;;11.00;99.90;;;;;;6242141;22;20023;-67
2023/05/25 04:54:42;;;;;;;12.80;5.68;;;11.00;99.90;;;;;;6240813;23;20024;-67
2023/05/25 04:57:08;;;;;;;12.98;6.45;;;11.10;99.90;;;;;;6242444;22;20016;-67
2023/05/25 04:59:34;;;;;;;12.82;5.07;;;11.20;99.90;;;;;;6240297;23;20666;-68
2023/05/25 05:01:59;;;;;;;11.48;5.03;;;11.30;99.90;;;;;;6240239;23;20118;-67
2023/05/25 05:04:25;;;;;;;12.35;5.63;;;11.50;99.90;;;;;;6242224;22;20018;-67
2023/05/25 05:06:51;;;;;;;10.65;5.30;;;11.50;99.90;;;;;;6240392;23;20023;-67
2023/05/25 05:09:16;;;;;;;10.40;5.65;;;11.60;99.90;;;;;;6242118;22;20076;-67
2023/05/25 05:11:42;;;;;;;15.27;6.32;;;11.70;99.90;;;;;;6241984;22;20091;-67
2023/05/25 05:14:08;;;;;;;12.43;5.68;;;11.80;99.90;;;;;;6241685;22;20024;-67
2023/05/25 05:16:33;;;;;;;9.82;5.75;;;11.90;99.90;;;;;;6242047;22;20019;-67
2023/05/25 05:19:00;;;;;;;9.85;5.72;;;12.10;99.90;;;;;;6241575;22;20031;-67
2023/05/25 05:21:26;;;;;;;14.05;5.38;;;12.20;99.90;;;;;;6241957;22;20020;-67
2023/05/25 05:23:52;;;;;;;11.63;4.88;;;12.30;99.90;;;;;;6241760;22;20018;-67
2023/05/25 05:26:18;;;;;;;9.70;5.15;;;12.30;99.90;;;;;;6241388;22;20351;-68
2023/05/25 05:28:44;;;;;;;11.02;5.20;;;12.40;99.90;;;;;;6241849;22;20020;-67
2023/05/25 05:31:10;;;;;;;12.77;5.43;;;12.40;99.90;;;;;;6242016;22;20012;-67
2023/05/25 05:33:36;;;;;;;12.13;5.40;;;12.50;99.90;;;;;;6241539;22;20078;-67
2023/05/25 05:36:03;;;;;;;14.18;5.30;;;12.60;99.90;;;;;;6239984;23;20016;-67
2023/05/25 05:38:29;;;;;;;7.60;5.22;;;12.60;99.90;;;;;;6240031;23;20016;-68
2023/05/25 05:40:54;;;;;;;7.68;5.00;;;12.70;99.90;;;;;;6239562;23;20031;-67
2023/05/25 05:43:20;;;;;;;9.30;4.72;;;12.80;99.90;;;;;;6241566;22;20016;-67
2023/05/25 05:45:46;;;;;;;9.70;5.40;;;12.90;99.90;;;;;;6241787;22;20023;-67
2023/05/25 05:48:11;;;;;;;8.60;5.25;;;13.00;99.90;;;;;;6241497;22;20015;-67
2023/05/25 05:50:38;;;;;;;13.95;5.50;;;13.10;99.90;;;;;;6239796;23;20020;-68
2023/05/25 05:53:05;;;;;;;12.10;5.55;;;13.30;99.90;;;;;;6239599;23;20023;-68
2023/05/25 05:55:33;;;;;;;14.88;4.78;;;13.20;99.90;;;;;;6239433;23;20027;-68
2023/05/25 05:57:59;;;;;;;12.20;4.63;;;13.40;99.90;;;;;;6239399;23;20097;-68
2023/05/25 06:00:25;;;;;;;14.77;5.28;;;13.50;99.90;;;;;;6241638;22;20445;-68
2023/05/25 06:02:50;;;;;;;11.60;5.38;;;13.50;99.90;;;;;;6241467;22;20019;-68
2023/05/25 06:05:16;;;;;;;11.10;4.60;;;13.50;99.90;;;;;;6241547;22;20054;-67
2023/05/25 06:07:42;;;;;;;12.40;5.00;;;13.70;99.90;;;;;;6241561;22;20055;-67
2023/05/25 06:10:08;;;;;;;13.00;5.35;;;13.60;99.90;;;;;;6239442;23;20488;-67
2023/05/25 06:12:34;;;;;;;12.25;4.72;;;13.70;99.90;;;;;;6241758;22;20020;-67
2023/05/25 06:15:00;;;;;;;9.52;4.03;;;13.70;99.90;;;;;;6241334;22;20074;-67
2023/05/25 06:17:28;;;;;;;11.35;4.50;;;13.90;99.90;;;;;;6239385;23;20076;-67
2023/05/25 06:19:54;;;;;;;11.02;3.67;;;13.90;99.90;;;;;;6239714;22;20016;-66
2023/05/25 06:22:20;;;;;;;12.23;4.35;;;14.00;99.90;;;;;;6240809;22;20099;-67
2023/05/25 06:24:46;;;;;;;15.30;4.15;;;14.10;99.90;;;;;;6240507;22;20359;-67
2023/05/25 06:27:12;;;;;;;16.35;4.47;;;14.10;99.90;;;;;;6240894;22;20027;-67
2023/05/25 06:29:38;;;;;;;11.20;5.07;;;14.20;99.90;;;;;;6238858;23;20786;-67
2023/05/25 06:32:04;;;;;;;11.73;4.07;;;14.10;99.90;;;;;;6240635;22;20120;-67
2023/05/25 06:34:29;;;;;;;8.98;3.83;;;14.20;99.90;;;;;;6239175;23;20444;-67
2023/05/25 06:36:55;;;;;;;19.38;4.43;;;14.10;99.90;;;;;;6241375;22;20083;-67
2023/05/25 06:39:21;;;;;;;11.35;4.72;;;14.10;99.90;;;;;;6240699;22;20008;-68
2023/05/25 06:41:47;;;;;;;13.93;4.32;;;14.00;99.90;;;;;;6240602;22;20016;-67
2023/05/25 06:44:12;;;;;;;6.40;3.75;;;14.00;99.90;;;;;;6239035;23;20023;-67
2023/05/25 06:46:38;;;;;;;10.15;3.88;;;13.90;99.90;;;;;;6241238;22;20047;-68
2023/05/25 06:49:04;;;;;;;7.68;3.80;;;13.90;99.90;;;;;;6241001;22;20055;-67
2023/05/25 06:51:31;;;;;;;9.38;3.63;;;13.90;99.90;;;;;;6241146;22;20027;-68
2023/05/25 06:53:57;;;;;;;10.52;4.75;;;13.80;99.90;;;;;;6238703;23;20478;-68
2023/05/25 06:56:23;;;;;;;14.27;4.53;;;13.90;99.90;;;;;;6240988;22;20012;-67
2023/05/25 06:58:49;;;;;;;7.75;3.90;;;13.80;99.90;;;;;;6241127;22;20012;-67
2023/05/25 07:01:15;;;;;;;11.50;4.55;;;13.80;99.90;;;;;;6240804;22;20440;-67
2023/05/25 07:03:41;;;;;;;13.32;3.80;;;13.80;99.90;;;;;;6241105;22;20008;-68
2023/05/25 07:06:07;;;;;;;12.25;4.20;;;13.90;99.90;;;;;;6238737;23;20479;-68
2023/05/25 07:08:33;;;;;;;11.85;4.70;;;14.00;99.90;;;;;;6240167;22;20016;-67
2023/05/25 07:10:59;;;;;;;11.77;4.07;;;14.00;99.90;;;;;;6240722;22;20031;-67
2023/05/25 07:13:24;;;;;;;10.02;4.32;;;13.90;99.90;;;;;;6240788;22;20016;-67
2023/05/25 07:15:51;;;;;;;8.20;3.78;;;14.00;99.90;;;;;;6239468;23;20568;-67
2023/05/25 07:18:17;;;;;;;11.85;3.58;;;14.00;99.90;;;;;;6213303;23;20403;-67
2023/05/25 07:20:43;;;;;;;13.00;3.83;;;14.20;99.90;;;;;;6240880;22;20023;-67
2023/05/25 07:23:10;;;;;;;7.97;3.70;;;14.10;99.90;;;;;;6240731;22;20352;-67
2023/05/25 07:25:37;;;;;;;10.50;3.55;;;14.10;99.90;;;;;;6240673;22;20447;-66
2023/05/25 07:28:03;;;;;;;10.68;3.65;;;14.10;99.90;;;;;;6240721;22;20535;-69
2023/05/25 07:30:29;;;;;;;8.25;3.60;;;14.10;99.90;;;;;;6240925;22;20020;-68
2023/05/25 07:32:55;;;;;;;9.93;3.83;;;14.10;99.90;;;;;;6240657;22;20383;-69
2023/05/25 07:35:21;;;;;;;8.57;3.45;;;14.10;99.90;;;;;;6239533;22;20008;-69
2023/05/25 07:37:59;;;;;;;9.25;3.28;;;14.10;99.90;;;;;;6240360;22;20077;-69
2023/05/25 07:40:25;;;;;;;11.35;3.25;;;14.10;99.90;;;;;;6238434;23;20411;-69
2023/05/25 07:42:51;;;;;;;8.07;2.95;;;14.00;99.90;;;;;;6240133;22;20016;-69
2023/05/25 07:45:16;;;;;;;11.32;3.35;;;14.10;99.90;;;;;;6240937;22;20013;-70
2023/05/25 07:47:42;;;;;;;10.40;2.90;;;14.00;99.90;;;;;;6240368;22;20569;-72
2023/05/25 07:50:08;;;;;;;9.15;2.97;;;14.00;99.90;;;;;;6240144;22;20023;-69
2023/05/25 07:52:34;;;;;;;11.00;3.00;;;14.00;99.90;;;;;;6239137;22;20023;-67
2023/05/25 07:55:00;;;;;;;10.57;3.30;;;14.00;99.90;;;;;;6239187;22;20020;-67
2023/05/25 07:57:26;;;;;;;11.35;3.25;;;13.90;99.90;;;;;;6239428;22;20336;-67
2023/05/25 07:59:51;;;;;;;12.65;4.20;;;13.90;99.90;;;;;;6239879;22;20016;-71
2023/05/25 08:02:17;;;;;;;14.10;3.03;;;13.90;99.90;;;;;;6236404;22;20047;-67
2023/05/25 08:04:43;;;;;;;10.50;3.08;;;13.90;99.90;;;;;;6238857;22;20012;-66
2023/05/25 08:07:08;;;;;;;11.32;3.20;;;13.90;99.90;;;;;;6237860;22;20363;-69
2023/05/25 08:09:34;;;;;;;10.30;2.80;;;13.90;99.90;;;;;;6236591;23;20103;-67
2023/05/25 08:12:00;;;;;;;10.80;3.05;;;13.90;99.90;;;;;;6238991;22;20460;-67
2023/05/25 08:14:26;;;;;;;12.75;3.03;;;14.00;99.90;;;;;;6237794;22;20005;-67
2023/05/25 08:16:52;;;;;;;8.18;2.55;;;14.00;99.90;;;;;;6238617;22;20117;-67
2023/05/25 08:19:18;;;;;;;11.48;3.38;;;14.10;99.90;;;;;;6240601;22;20087;-67
2023/05/25 08:21:44;;;;;;;5.97;2.88;;;14.10;99.90;;;;;;6240630;23;20066;-67
2023/05/25 08:24:09;;;;;;;19.90;3.40;;;14.10;99.90;;;;;;6240885;22;20701;-67
2023/05/25 08:26:35;;;;;;;14.73;3.83;;;14.20;99.90;;;;;;6240883;22;20635;-67
2023/05/25 08:29:04;;;;;;;12.15;3.13;;;14.20;99.90;;;;;;6240259;22;20039;-67
2023/05/25 08:31:31;;;;;;;7.10;2.45;;;14.30;99.90;;;;;;6240447;22;20396;-67
2023/05/25 08:33:57;;;;;;;19.27;3.40;;;14.30;99.90;;;;;;6238977;23;20062;-67
2023/05/25 08:36:25;;;;;;;7.53;2.90;;;14.40;99.90;;;;;;6237872;22;20413;-67
2023/05/25 08:38:51;;;;;;;16.38;2.65;;;14.40;99.90;;;;;;6241682;22;20082;-67
2023/05/25 08:41:18;;;;;;;8.82;3.13;;;14.40;99.90;;;;;;6242453;22;20060;-67
2023/05/25 08:43:44;;;;;;;12.55;2.92;;;14.40;99.90;;;;;;6240604;23;20122;-67
2023/05/25 08:46:10;;;;;;;6.43;2.35;;;14.40;99.90;;;;;;6242798;22;20062;-67
2023/05/25 08:48:37;;;;;;;10.35;2.95;;;14.50;99.90;;;;;;6242115;22;20430;-67
2023/05/25 08:51:08;;;;;;;8.15;2.83;;;14.50;99.90;;;;;;6241878;22;20497;-67
2023/05/25 08:53:38;;;;;;;11.82;3.10;;;14.60;99.90;;;;;;6241821;22;20020;-67
2023/05/25 08:56:14;;;;;;;10.18;3.10;;;14.60;99.90;;;;;;6240270;23;20016;-67
2023/05/25 08:58:58;;;;;;;12.93;2.72;;;14.70;99.90;;;;;;6242338;22;20012;-67
2023/05/25 09:01:27;;;;;;;9.50;2.55;;;14.70;99.90;;;;;;6241892;22;20027;-67
2023/05/25 09:03:55;;;;;;;12.23;2.90;;;14.80;99.90;;;;;;6241090;22;20016;-67
2023/05/25 09:06:25;;;;;;;16.88;3.40;;;14.80;99.90;;;;;;6241404;22;20066;-66
2023/05/25 09:08:52;;;;;;;13.35;3.03;;;14.90;99.90;;;;;;6239838;23;20016;-66
2023/05/25 09:11:19;;;;;;;16.17;3.58;;;14.90;99.90;;;;;;6242038;22;20043;-68
2023/05/25 09:13:45;;;;;;;15.90;2.95;;;14.90;99.90;;;;;;6241659;22;20340;-67
2023/05/25 09:16:11;;;;;;;11.73;3.38;;;14.90;99.90;;;;;;6241846;22;20016;-67
2023/05/25 09:18:38;;;;;;;14.82;3.00;;;14.80;99.90;;;;;;6240671;22;20020;-66
2023/05/25 09:21:04;;;;;;;12.77;2.97;;;14.80;99.90;;;;;;6241934;22;20502;-66
2023/05/25 09:23:31;;;;;;;10.77;3.00;;;15.10;99.90;;;;;;6241877;22;20091;-68
2023/05/25 09:25:57;;;;;;;21.17;4.45;;;14.90;99.90;;;;;;6239799;23;20012;-67
2023/05/25 09:28:23;;;;;;;10.40;3.58;;;14.90;99.90;;;;;;6241551;22;20051;-67
2023/05/25 09:30:49;;;;;;;15.20;2.88;;;14.90;99.90;;;;;;6241741;22;20019;-67
2023/05/25 09:33:18;;;;;;;10.48;2.75;;;14.90;99.90;;;;;;6241797;22;20016;-67
2023/05/25 09:35:45;;;;;;;12.90;3.38;;;15.00;99.90;;;;;;6241832;22;20027;-67
2023/05/25 09:38:17;;;;;;;17.50;3.33;;;15.10;99.90;;;;;;6240154;23;20015;-67
2023/05/25 09:40:43;;;;;;;15.68;3.47;;;15.00;99.90;;;;;;6241423;22;20012;-67
2023/05/25 09:43:11;;;;;;;12.57;2.53;;;14.90;99.90;;;;;;6241309;22;20012;-66
2023/05/25 09:45:37;;;;;;;13.68;3.35;;;15.10;99.90;;;;;;6236507;23;20336;-67
2023/05/25 09:48:05;;;;;;;13.00;3.00;;;15.20;99.90;;;;;;6240428;22;20028;-66
2023/05/25 09:50:31;;;;;;;13.02;4.20;;;15.10;99.90;;;;;;6241138;22;20051;-67
2023/05/25 09:52:58;;;;;;;14.88;3.03;;;15.10;99.90;;;;;;6241295;22;20016;-67
2023/05/25 09:55:29;;;;;;;16.35;2.97;;;15.10;99.90;;;;;;6240949;22;20020;-65
2023/05/25 09:57:56;;;;;;;19.10;3.33;;;15.20;99.90;;;;;;6241113;22;20048;-67
2023/05/25 10:00:25;;;;;;;17.58;3.63;;;15.40;99.90;;;;;;6239299;23;20023;-66
2023/05/25 10:02:51;;;;;;;12.50;2.92;;;15.40;99.90;;;;;;6240644;22;20321;-67
2023/05/25 10:05:17;;;;;;;20.38;3.58;;;15.60;99.90;;;;;;6239192;23;20016;-67
2023/05/25 10:07:45;;;;;;;21.30;3.50;;;15.60;99.90;;;;;;6241272;22;20034;-67
2023/05/25 10:10:14;;;;;;;14.40;3.10;;;15.60;99.90;;;;;;6239258;23;20142;-67
2023/05/25 10:12:42;;;;;;;21.20;3.50;;;15.50;99.90;;;;;;6240843;22;20020;-66
2023/05/25 10:15:09;;;;;;;13.25;3.30;;;15.50;99.90;;;;;;6241143;22;20022;-67
2023/05/25 10:17:37;;;;;;;17.42;3.63;;;15.70;99.90;;;;;;6241044;22;20023;-67
2023/05/25 10:20:06;;;;;;;12.50;3.17;;;15.80;99.90;;;;;;6239295;23;20012;-69
2023/05/25 10:22:38;;;;;;;17.35;3.63;;;16.00;99.90;;;;;;6241102;22;20020;-71
2023/05/25 10:25:15;;;;;;;15.20;3.15;;;15.70;99.90;;;;;;6241018;22;20024;-69
2023/05/25 10:27:46;;;;;;;20.63;3.55;;;15.60;99.90;;;;;;6241585;22;20043;-69
2023/05/25 10:30:14;;;;;;;17.48;3.30;;;15.90;99.90;;;;;;6241078;22;20440;-69
2023/05/25 10:32:41;;;;;;;13.60;3.78;;;15.60;99.90;;;;;;6240404;22;20068;-66
2023/05/25 10:35:08;;;;;;;18.60;3.13;;;15.60;99.90;;;;;;6241238;22;20030;-67
2023/05/25 10:37:35;;;;;;;15.38;3.40;;;15.60;99.90;;;;;;6241328;22;20030;-68
2023/05/25 10:40:02;;;;;;;17.92;3.42;;;16.20;99.90;;;;;;6241373;22;20115;-68
2023/05/25 10:42:29;;;;;;;14.00;3.10;;;16.00;99.90;;;;;;6239333;22;20012;-67
2023/05/25 10:44:56;;;;;;;13.57;2.92;;;16.40;99.90;;;;;;6241679;22;20017;-67
2023/05/25 10:47:22;;;;;;;13.32;3.38;;;16.20;99.90;;;;;;6240596;22;20012;-67
2023/05/25 10:49:52;;;;;;;13.05;3.53;;;16.30;99.90;;;;;;6240867;22;20093;-67
2023/05/25 10:52:19;;;;;;;18.60;4.10;;;16.10;99.90;;;;;;6237665;22;20012;-67
2023/05/25 10:54:46;;;;;;;16.33;3.20;;;16.10;99.90;;;;;;6241504;22;20028;-67
2023/05/25 10:57:20;;;;;;;13.75;3.50;;;16.10;99.90;;;;;;6242595;22;20078;-67
2023/05/25 10:59:58;;;;;;;15.30;3.83;;;16.20;99.90;;;;;;6242120;22;20020;-67
2023/05/25 11:02:27;;;;;;;14.40;3.22;;;16.30;99.90;;;;;;6241834;22;20012;-67
2023/05/25 11:05:29;;;;;;;9.93;2.88;;;16.20;99.90;;;;;;6240187;22;20012;-68
2023/05/25 11:42:54;;;;;;;18.88;3.33;;;16.20;99.90;;;;;;6239512;23;20036;-67
2023/05/25 11:45:21;;;;;;;19.45;4.10;;;16.30;99.90;;;;;;6270425;22;20028;-67
2023/05/25 11:47:47;;;;;;;10.90;3.47;;;16.40;99.90;;;;;;6271112;22;20015;-67
2023/05/25 11:50:16;;;;;;;16.45;3.35;;;16.40;99.90;;;;;;6269638;22;20027;-67
2023/05/25 11:52:42;;;;;;;14.10;2.88;;;16.30;99.90;;;;;;6271831;22;20020;-67
2023/05/25 11:55:13;;;;;;;14.65;3.67;;;16.20;99.90;;;;;;6245996;22;20027;-67
2023/05/25 11:57:39;;;;;;;16.02;3.42;;;16.40;99.90;;;;;;6273718;22;20023;-67
2023/05/25 12:00:06;;;;;;;13.30;2.88;;;16.30;99.90;;;;;;6273536;22;20351;-67
2023/05/25 12:02:39;;;;;;;11.27;2.75;;;16.50;99.90;;;;;;6272651;22;20023;-67
2023/05/25 12:05:06;;;;;;;12.82;3.65;;;16.40;99.90;;;;;;6272941;22;20062;-67
2023/05/25 12:07:33;;;;;;;15.85;2.95;;;16.30;99.90;;;;;;6273145;22;20016;-67
2023/05/25 12:10:10;;;;;;;14.63;3.40;;;16.30;99.90;;;;;;6273459;22;20011;-67
2023/05/25 12:12:49;;;;;;;15.38;3.33;;;16.40;99.90;;;;;;6273073;22;20015;-67
2023/05/25 12:15:22;;;;;;;17.10;3.33;;;16.50;99.90;;;;;;6272903;22;20019;-67
2023/05/25 12:17:49;;;;;;;12.07;3.40;;;16.30;99.90;;;;;;6273508;22;20047;-67
2023/05/25 12:20:16;;;;;;;11.48;3.30;;;16.40;99.90;;;;;;6271169;22;20046;-67
2023/05/25 12:22:42;;;;;;;14.77;3.45;;;16.70;99.90;;;;;;6272854;22;20468;-66
2023/05/25 12:25:09;;;;;;;15.43;3.00;;;16.60;99.90;;;;;;6273032;22;20023;-67
2023/05/25 12:27:36;;;;;;;14.75;3.05;;;16.60;99.90;;;;;;6272768;22;20082;-67
2023/05/25 12:30:03;;;;;;;21.75;3.50;;;16.50;99.90;;;;;;6273322;22;20012;-67
2023/05/25 12:32:29;;;;;;;19.30;3.25;;;16.50;99.90;;;;;;6273072;22;20019;-67
2023/05/25 12:35:05;;;;;;;14.63;3.08;;;16.60;99.90;;;;;;6272910;22;20019;-67
2023/05/25 12:37:31;;;;;;;15.00;3.40;;;16.50;99.90;;;;;;6273138;22;20343;-67
2023/05/25 12:39:57;;;;;;;18.65;3.63;;;16.50;99.90;;;;;;6270966;22;20412;-67
2023/05/25 12:42:26;;;;;;;12.23;3.83;;;16.50;99.90;;;;;;6272545;22;20020;-66
2023/05/25 12:44:56;;;;;;;14.80;3.53;;;16.60;99.90;;;;;;6272610;22;20051;-67
2023/05/25 12:47:23;;;;;;;18.45;3.20;;;16.60;99.90;;;;;;6273026;22;20070;-67
2023/05/25 12:50:08;;;;;;;17.27;3.40;;;16.90;99.90;;;;;;6271244;22;20094;-67
2023/05/25 12:52:39;;;;;;;15.32;4.13;;;16.70;99.90;;;;;;6272348;22;20015;-67
2023/05/25 12:55:25;;;;;;;14.30;4.13;;;16.70;99.90;;;;;;6272949;22;20054;-67
2023/05/25 12:57:52;;;;;;;15.27;3.47;;;16.70;99.90;;;;;;6273025;22;20027;-67
2023/05/25 13:00:22;;;;;;;12.27;3.20;;;16.60;99.90;;;;;;6273346;22;20007;-67
2023/05/25 13:02:49;;;;;;;16.17;2.97;;;16.50;99.90;;;;;;6273155;22;20065;-67
2023/05/25 13:05:28;;;;;;;16.05;3.50;;;16.70;99.90;;;;;;6272366;22;20046;-67
2023/05/25 13:07:55;;;;;;;11.05;3.35;;;16.60;99.90;;;;;;6271098;22;20015;-67
2023/05/25 13:10:22;;;;;;;18.52;4.03;;;16.60;99.90;;;;;;6272174;22;20427;-67
2023/05/25 13:12:48;;;;;;;12.77;3.47;;;16.50;99.90;;;;;;6272671;22;20466;-67
2023/05/25 13:15:17;;;;;;;20.20;4.07;;;16.50;99.90;;;;;;6272162;22;20047;-66
2023/05/25 13:17:43;;;;;;;22.08;4.22;;;16.80;99.90;;;;;;6272625;22;20047;-67